Time;durP1;ratioP1;P1;durP2;ratioP2;P2;SDS_P1;SDS_P2;PMS_P1;PMS_P2;Temp;Humidity;BMP_temperature;BMP_pressure;BME280_temperature;BME280_humidity;BME280_pressure;Samples;Min_cycle;Max_cycle;Signal;HPM_P1;HPM_P2
2021/05/14 00:00:22;;;;;;;3.22;2.38;;;;;;;-142.37;100.00;59669.53;5053294;28;20039;-60
2021/05/14 00:02:47;;;;;;;2.20;2.00;;;;;;;-142.37;100.00;59669.53;5053735;28;20024;-60
2021/05/14 00:05:13;;;;;;;2.42;2.03;;;;;;;-142.37;100.00;59669.53;5053478;28;20028;-60
2021/05/14 00:07:38;;;;;;;2.70;2.28;;;;;;;-142.37;100.00;59669.53;5053124;28;20048;-60
2021/05/14 00:10:05;;;;;;;3.65;2.30;;;;;;;-142.37;100.00;59669.53;5052936;28;20032;-60
2021/05/14 00:12:30;;;;;;;2.10;1.90;;;;;;;-142.37;100.00;59669.53;5053125;28;20021;-60
2021/05/14 00:14:56;;;;;;;3.00;2.70;;;;;;;-142.37;100.00;59669.53;5053229;28;20452;-60
2021/05/14 00:17:21;;;;;;;1.98;1.88;;;;;;;-142.37;100.00;59669.53;5053105;28;20029;-60
2021/05/14 00:19:46;;;;;;;2.75;2.55;;;;;;;-142.37;100.00;59669.53;5051633;28;20029;-60
2021/05/14 00:22:11;;;;;;;2.80;2.33;;;;;;;-142.37;100.00;59669.53;5067056;28;20028;-60
2021/05/14 00:24:37;;;;;;;2.33;2.08;;;;;;;-142.37;100.00;59669.53;5063384;28;20025;-60
2021/05/14 00:27:02;;;;;;;2.63;2.42;;;;;;;-142.37;100.00;59669.53;5053046;28;20111;-60
2021/05/14 00:29:28;;;;;;;3.08;2.67;;;;;;;-142.37;100.00;59669.53;5039972;28;20053;-60
2021/05/14 00:31:54;;;;;;;2.78;2.40;;;;;;;-142.37;100.00;59669.53;5032932;28;20049;-60
2021/05/14 00:34:20;;;;;;;3.35;2.80;;;;;;;-142.37;100.00;59669.53;5032827;28;20068;-60
2021/05/14 00:36:45;;;;;;;2.63;2.42;;;;;;;-142.37;100.00;59669.53;5032832;28;20021;-60
2021/05/14 00:39:11;;;;;;;3.78;3.13;;;;;;;-142.37;100.00;59669.53;5032990;28;20029;-60
2021/05/14 00:41:36;;;;;;;2.65;2.45;;;;;;;-142.37;100.00;59669.53;5031488;28;20037;-60
2021/05/14 00:44:34;;;;;;;3.65;2.92;;;;;;;-142.37;100.00;59669.53;5032812;28;20021;-60
2021/05/14 00:47:03;;;;;;;3.67;2.65;;;;;;;-142.37;100.00;59669.53;5033037;28;20057;-60
2021/05/14 00:49:29;;;;;;;2.88;2.67;;;;;;;-142.37;100.00;59669.53;5032600;28;20117;-60
2021/05/14 00:51:56;;;;;;;3.05;2.70;;;;;;;-142.37;100.00;59669.53;5044702;28;20448;-60
2021/05/14 00:54:21;;;;;;;3.20;2.78;;;;;;;-142.37;100.00;59669.53;5067901;28;20038;-60
2021/05/14 00:56:47;;;;;;;2.90;2.60;;;;;;;-142.37;100.00;59669.53;5072566;28;20026;-60
2021/05/14 00:59:12;;;;;;;4.03;3.30;;;;;;;-142.37;100.00;59669.53;5072650;28;20409;-60
2021/05/14 01:01:38;;;;;;;3.53;2.65;;;;;;;-142.37;100.00;59669.53;5072372;28;20480;-60
2021/05/14 01:04:04;;;;;;;3.00;2.70;;;;;;;-142.37;100.00;59669.53;5072568;28;20556;-60
2021/05/14 01:06:29;;;;;;;2.90;2.70;;;;;;;-142.37;100.00;59669.53;5072646;28;20388;-60
2021/05/14 01:09:00;;;;;;;3.20;2.63;;;;;;;-142.37;100.00;59669.53;5072556;28;20387;-60
2021/05/14 01:11:26;;;;;;;4.60;2.88;;;;;;;-142.37;100.00;59669.53;5072298;28;20123;-60
2021/05/14 01:13:51;;;;;;;3.78;3.38;;;;;;;-142.37;100.00;59669.53;5072216;28;20410;-60
2021/05/14 01:16:17;;;;;;;3.15;2.95;;;;;;;-142.37;100.00;59669.53;5072374;28;20412;-59
2021/05/14 01:18:42;;;;;;;3.40;3.10;;;;;;;-142.37;100.00;59669.53;5072228;28;20492;-60
2021/05/14 01:21:07;;;;;;;3.97;3.13;;;;;;;-142.37;100.00;59669.53;5064547;28;20095;-60
2021/05/14 01:23:33;;;;;;;5.25;3.03;;;;;;;-142.37;100.00;59669.53;5054409;28;20041;-60
2021/05/14 01:25:58;;;;;;;3.47;2.90;;;;;;;-142.37;100.00;59669.53;5072283;28;20052;-60
2021/05/14 01:28:23;;;;;;;3.35;2.85;;;;;;;-142.37;100.00;59669.53;5068021;28;20037;-60
2021/05/14 01:30:49;;;;;;;5.28;3.30;;;;;;;-142.37;100.00;59669.53;5052279;28;20403;-60
2021/05/14 01:33:14;;;;;;;3.63;3.33;;;;;;;-142.37;100.00;59669.53;5052323;28;20029;-60
2021/05/14 01:35:40;;;;;;;3.30;3.00;;;;;;;-142.37;100.00;59669.53;5051953;28;20392;-60
2021/05/14 01:38:07;;;;;;;3.00;2.70;;;;;;;-142.37;100.00;59669.53;5052312;28;20468;-60
2021/05/14 01:40:36;;;;;;;3.75;3.45;;;;;;;-142.37;100.00;59669.53;5052545;28;20028;-60
2021/05/14 01:43:01;;;;;;;3.00;2.65;;;;;;;-142.37;100.00;59669.53;5071902;28;20044;-60
2021/05/14 01:45:27;;;;;;;3.83;2.75;;;;;;;-142.37;100.00;59669.53;5070782;28;20116;-60
2021/05/14 01:47:52;;;;;;;3.00;2.70;;;;;;;-142.37;100.00;59669.53;5072096;28;20070;-60
2021/05/14 01:50:18;;;;;;;3.08;2.80;;;;;;;-142.37;100.00;59669.53;5072198;28;20070;-60
2021/05/14 01:52:44;;;;;;;3.35;3.05;;;;;;;-142.37;100.00;59669.53;5072071;28;20052;-60
2021/05/14 01:55:09;;;;;;;3.25;2.95;;;;;;;-142.37;100.00;59669.53;5072139;28;20502;-60
2021/05/14 01:57:35;;;;;;;3.30;3.00;;;;;;;-142.37;100.00;59669.53;5071820;28;20491;-60
2021/05/14 02:00:00;;;;;;;3.33;3.00;;;;;;;-142.37;100.00;59669.53;5071995;28;20119;-60
2021/05/14 02:02:25;;;;;;;3.83;3.00;;;;;;;-142.37;100.00;59669.53;5071835;28;20017;-60
2021/05/14 02:04:51;;;;;;;3.47;3.17;;;;;;;-142.37;100.00;59669.53;5072019;28;20024;-60
2021/05/14 02:07:16;;;;;;;2.80;2.60;;;;;;;-142.37;100.00;59669.53;5072279;28;20069;-60
2021/05/14 02:09:41;;;;;;;3.03;2.65;;;;;;;-142.37;100.00;59669.53;5074704;28;20025;-60
2021/05/14 02:12:08;;;;;;;3.30;3.00;;;;;;;-142.37;100.00;59669.53;5061821;28;20025;-60
2021/05/14 02:14:33;;;;;;;3.55;3.25;;;;;;;-142.37;100.00;59669.53;5072507;28;20032;-59
2021/05/14 02:16:58;;;;;;;3.65;3.28;;;;;;;-142.37;100.00;59669.53;5075523;28;20415;-60
2021/05/14 02:19:24;;;;;;;3.00;2.78;;;;;;;-142.37;100.00;59669.53;5075340;28;20097;-59
2021/05/14 02:21:50;;;;;;;4.28;3.33;;;;;;;-142.37;100.00;59669.53;5075187;28;20050;-60
2021/05/14 02:24:15;;;;;;;3.40;3.15;;;;;;;-142.37;100.00;59669.53;5075352;28;20052;-60
2021/05/14 02:26:40;;;;;;;3.40;3.10;;;;;;;-142.37;100.00;59669.53;5075223;28;20164;-60
2021/05/14 02:29:06;;;;;;;3.60;3.15;;;;;;;-142.37;100.00;59669.53;5065354;28;20461;-60
2021/05/14 02:31:31;;;;;;;3.30;3.00;;;;;;;-142.37;100.00;59669.53;5055135;28;20021;-60
2021/05/14 02:33:57;;;;;;;3.22;2.83;;;;;;;-142.37;100.00;59669.53;5055013;28;20056;-60
2021/05/14 02:36:22;;;;;;;3.25;2.50;;;;;;;-142.37;100.00;59669.53;5055052;28;20025;-59
2021/05/14 02:38:47;;;;;;;3.00;2.80;;;;;;;-142.37;100.00;59669.53;5055324;28;20060;-60
2021/05/14 02:41:13;;;;;;;3.50;3.20;;;;;;;-142.37;100.00;59669.53;5060766;28;20036;-60
2021/05/14 02:43:40;;;;;;;3.35;3.03;;;;;;;-142.37;100.00;59669.53;5075095;28;20024;-60
2021/05/14 02:46:05;;;;;;;3.10;2.80;;;;;;;-142.37;100.00;59669.53;5074975;28;20464;-60
2021/05/14 02:48:31;;;;;;;3.25;2.95;;;;;;;-142.37;100.00;59669.53;5059834;28;20025;-60
2021/05/14 02:50:56;;;;;;;3.45;3.15;;;;;;;-142.37;100.00;59669.53;5054859;28;20027;-60
2021/05/14 02:53:21;;;;;;;2.88;2.67;;;;;;;-142.37;100.00;59669.53;5054764;28;20074;-60
2021/05/14 02:55:47;;;;;;;3.33;3.03;;;;;;;-142.37;100.00;59669.53;5054608;28;20083;-60
2021/05/14 02:58:12;;;;;;;3.20;2.70;;;;;;;-142.37;100.00;59669.53;5054740;28;20415;-60
2021/05/14 03:00:38;;;;;;;2.58;2.38;;;;;;;-142.37;100.00;59669.53;5054494;28;20025;-60
2021/05/14 03:03:03;;;;;;;2.88;2.67;;;;;;;-142.37;100.00;59669.53;5054732;28;20028;-60
2021/05/14 03:05:28;;;;;;;2.70;2.50;;;;;;;-142.37;100.00;59669.53;5054402;28;20418;-60
2021/05/14 03:07:54;;;;;;;3.90;2.70;;;;;;;-142.37;100.00;59669.53;5054480;28;20439;-59
2021/05/14 03:10:19;;;;;;;2.97;2.67;;;;;;;-142.37;100.00;59669.53;5054697;28;20033;-60
2021/05/14 03:12:45;;;;;;;2.65;2.45;;;;;;;-142.37;100.00;59669.53;5054353;28;20028;-60
2021/05/14 03:15:10;;;;;;;2.97;2.67;;;;;;;-142.37;100.00;59669.53;5054442;28;20060;-60
2021/05/14 03:17:36;;;;;;;2.88;2.67;;;;;;;-142.37;100.00;59669.53;5052859;28;20056;-60
2021/05/14 03:20:02;;;;;;;2.97;2.78;;;;;;;-142.37;100.00;59669.53;5053156;28;20049;-60
2021/05/14 03:22:27;;;;;;;3.20;2.83;;;;;;;-142.37;100.00;59669.53;5054100;28;20463;-59
2021/05/14 03:24:52;;;;;;;2.83;2.45;;;;;;;-142.37;100.00;59669.53;5054194;28;20408;-59
2021/05/14 03:27:18;;;;;;;3.08;2.88;;;;;;;-142.37;100.00;59669.53;5054216;28;20029;-59
2021/05/14 03:29:43;;;;;;;2.92;2.67;;;;;;;-142.37;100.00;59669.53;5038828;28;20022;-60
2021/05/14 03:32:08;;;;;;;2.88;2.67;;;;;;;-142.37;100.00;59669.53;5034286;28;20381;-60
2021/05/14 03:34:33;;;;;;;2.80;2.60;;;;;;;-142.37;100.00;59669.53;5033808;28;20029;-60
2021/05/14 03:36:59;;;;;;;2.72;2.53;;;;;;;-142.37;100.00;59669.53;5034127;28;20033;-60
2021/05/14 03:39:26;;;;;;;3.08;2.78;;;;;;;-142.37;100.00;59669.53;5033960;28;20025;-60
2021/05/14 03:42:03;;;;;;;3.42;2.88;;;;;;;-142.37;100.00;59669.53;5047749;28;20025;-60
2021/05/14 03:44:30;;;;;;;3.08;2.85;;;;;;;-142.37;100.00;59669.53;5052473;28;20096;-60
2021/05/14 03:46:55;;;;;;;3.45;2.65;;;;;;;-142.37;100.00;59669.53;5053819;28;20036;-60
2021/05/14 03:49:20;;;;;;;2.40;2.20;;;;;;;-142.37;100.00;59669.53;5053585;28;20025;-59
2021/05/14 03:51:46;;;;;;;3.15;2.50;;;;;;;-142.37;100.00;59669.53;5053651;28;20504;-60
2021/05/14 03:54:11;;;;;;;3.10;2.80;;;;;;;-142.37;100.00;59669.53;5053707;28;20376;-60
2021/05/14 03:56:36;;;;;;;2.40;2.20;;;;;;;-142.37;100.00;59669.53;5053459;28;20087;-60
2021/05/14 03:59:02;;;;;;;2.17;2.00;;;;;;;-142.37;100.00;59669.53;5053569;28;20052;-60
2021/05/14 04:01:28;;;;;;;2.03;1.92;;;;;;;-142.37;100.00;59669.53;5053294;28;20032;-60
2021/05/14 04:03:54;;;;;;;2.60;2.10;;;;;;;-142.37;100.00;59669.53;5053423;28;20430;-60
2021/05/14 04:06:19;;;;;;;2.53;2.33;;;;;;;-142.37;100.00;59669.53;5053439;28;20104;-60
2021/05/14 04:08:44;;;;;;;2.55;2.35;;;;;;;-142.37;100.00;59669.53;5053326;28;20025;-60
2021/05/14 04:16:25;;;;;;;2.88;2.38;;;;;;;-142.37;100.00;59669.53;5073351;28;20036;-60
2021/05/14 04:18:51;;;;;;;2.30;2.10;;;;;;;-142.37;100.00;59669.53;5073154;28;20033;-60
2021/05/14 04:21:17;;;;;;;2.50;2.05;;;;;;;-142.37;100.00;59669.53;5072941;28;20049;-60
2021/05/14 04:23:42;;;;;;;2.58;2.38;;;;;;;-142.37;100.00;59669.53;5072824;28;20499;-60
2021/05/14 04:26:07;;;;;;;2.38;2.17;;;;;;;-142.37;100.00;59669.53;5073096;28;20048;-60
2021/05/14 04:28:32;;;;;;;2.65;2.45;;;;;;;-142.37;100.00;59669.53;5067450;28;20376;-60
2021/05/14 04:30:58;;;;;;;2.65;2.45;;;;;;;-142.37;100.00;59669.53;5052810;28;20094;-60
2021/05/14 04:33:23;;;;;;;2.63;2.40;;;;;;;-142.37;100.00;59669.53;5052823;28;20028;-60
2021/05/14 04:35:49;;;;;;;2.15;1.95;;;;;;;-142.37;100.00;59669.53;5052667;28;20108;-59
2021/05/14 04:38:15;;;;;;;2.35;2.15;;;;;;;-142.37;100.00;59669.53;5052630;28;20039;-59
2021/05/14 04:40:40;;;;;;;2.85;2.40;;;;;;;-142.37;100.00;59669.53;5057512;28;20024;-59
2021/05/14 04:43:05;;;;;;;2.97;2.20;;;;;;;-142.37;100.00;59669.53;5072832;28;20103;-59
2021/05/14 04:45:31;;;;;;;1.77;1.67;;;;;;;-142.37;100.00;59669.53;5072604;28;20040;-59
2021/05/14 04:47:59;;;;;;;2.30;2.10;;;;;;;-142.37;100.00;59669.53;5072631;28;20353;-59
2021/05/14 04:50:25;;;;;;;2.45;1.88;;;;;;;-142.37;100.00;59669.53;5072632;28;20024;-60
2021/05/14 04:53:06;;;;;;;2.25;1.90;;;;;;;-142.37;100.00;59669.53;5072644;28;20121;-60
2021/05/14 04:55:32;;;;;;;2.35;1.85;;;;;;;-142.37;100.00;59669.53;5072375;28;20044;-60
2021/05/14 04:57:57;;;;;;;1.85;1.75;;;;;;;-142.37;100.00;59669.53;5072572;28;20024;-60
2021/05/14 05:00:24;;;;;;;2.53;2.20;;;;;;;-142.37;100.00;59669.53;5072456;28;20035;-60
2021/05/14 05:02:49;;;;;;;2.67;2.00;;;;;;;-142.37;100.00;59669.53;5072602;28;20025;-59
2021/05/14 05:05:15;;;;;;;2.25;2.03;;;;;;;-142.37;100.00;59669.53;5072620;28;20375;-60
2021/05/14 05:07:40;;;;;;;2.10;1.90;;;;;;;-142.37;100.00;59669.53;5072330;28;20062;-59
2021/05/14 05:10:06;;;;;;;1.95;1.48;;;;;;;-142.37;100.00;59669.53;5069183;28;20025;-59
2021/05/14 05:12:31;;;;;;;1.90;1.80;;;;;;;-142.37;100.00;59669.53;5052242;28;20075;-59
2021/05/14 05:14:56;;;;;;;1.60;1.50;;;;;;;-142.37;100.00;59669.53;5052436;28;20060;-59
2021/05/14 05:17:21;;;;;;;3.28;1.80;;;;;;;-142.37;100.00;59669.53;5052318;28;20091;-60
2021/05/14 05:19:47;;;;;;;2.33;1.83;;;;;;;-142.37;100.00;59669.53;5052164;28;20073;-60
2021/05/14 05:22:12;;;;;;;1.52;1.38;;;;;;;-142.37;100.00;59669.53;5052502;28;20021;-59
2021/05/14 05:24:37;;;;;;;2.15;1.80;;;;;;;-142.37;100.00;59669.53;5052183;28;20353;-59
2021/05/14 05:27:03;;;;;;;1.70;1.60;;;;;;;-142.37;100.00;59669.53;5052474;28;20415;-59
2021/05/14 05:29:28;;;;;;;1.75;1.40;;;;;;;-142.37;100.00;59669.53;5039085;28;20029;-59
2021/05/14 05:31:53;;;;;;;2.05;1.75;;;;;;;-142.37;100.00;59669.53;5032356;28;20036;-60
2021/05/14 05:34:19;;;;;;;1.58;1.20;;;;;;;-142.37;100.00;59669.53;5032299;28;20087;-60
2021/05/14 05:36:44;;;;;;;1.65;1.40;;;;;;;-142.37;100.00;59669.53;5032325;28;20029;-60
2021/05/14 05:39:10;;;;;;;1.60;1.40;;;;;;;-142.37;100.00;59669.53;5032416;28;20029;-60
2021/05/14 05:41:35;;;;;;;1.77;1.27;;;;;;;-142.37;100.00;59669.53;5047991;28;20040;-60
2021/05/14 05:44:00;;;;;;;1.30;1.20;;;;;;;-142.37;100.00;59669.53;5054241;28;20037;-59
2021/05/14 05:46:26;;;;;;;1.25;1.15;;;;;;;-142.37;100.00;59669.53;5055984;28;20031;-60
2021/05/14 05:48:51;;;;;;;1.70;1.60;;;;;;;-142.37;100.00;59669.53;5056349;28;20021;-60
2021/05/14 05:51:16;;;;;;;1.50;1.00;;;;;;;-142.37;100.00;59669.53;5055815;28;20429;-60
2021/05/14 05:53:42;;;;;;;1.30;1.15;;;;;;;-142.37;100.00;59669.53;5055737;28;20071;-60
2021/05/14 05:56:08;;;;;;;1.05;0.98;;;;;;;-142.37;100.00;59669.53;5055849;28;20021;-60
2021/05/14 05:58:33;;;;;;;1.65;1.02;;;;;;;-142.37;100.00;59669.53;5055681;28;20052;-59
2021/05/14 06:00:59;;;;;;;2.13;1.55;;;;;;;-142.37;100.00;59669.53;5054525;28;20112;-60
2021/05/14 06:03:24;;;;;;;1.35;1.10;;;;;;;-142.37;100.00;59669.53;5055686;28;20113;-60
2021/05/14 06:05:50;;;;;;;1.48;1.00;;;;;;;-142.37;100.00;59669.53;5054370;28;20059;-60
2021/05/14 06:08:16;;;;;;;1.13;0.90;;;;;;;-142.37;100.00;59669.53;5055190;28;20043;-61
2021/05/14 06:10:42;;;;;;;1.00;0.90;;;;;;;-142.37;100.00;59669.53;5058651;28;20028;-60
2021/05/14 06:13:07;;;;;;;1.63;0.82;;;;;;;-142.37;100.00;59669.53;5055818;28;20066;-59
2021/05/14 06:15:33;;;;;;;2.65;0.95;;;;;;;-142.37;100.00;59669.53;5055257;28;20357;-60
2021/05/14 06:17:58;;;;;;;0.70;0.70;;;;;;;-142.37;100.00;59669.53;5054474;28;20086;-60
2021/05/14 06:20:25;;;;;;;0.75;0.70;;;;;;;-142.37;100.00;59669.53;5053853;28;20086;-60
2021/05/14 06:22:51;;;;;;;0.60;0.60;;;;;;;-142.37;100.00;59669.53;5054944;28;20056;-60
2021/05/14 06:25:18;;;;;;;1.25;0.60;;;;;;;-142.37;100.00;59669.53;5055629;28;20484;-60
2021/05/14 06:27:44;;;;;;;1.13;0.70;;;;;;;-142.37;100.00;59669.53;5054700;28;20017;-60
2021/05/14 06:30:10;;;;;;;0.80;0.70;;;;;;;-142.37;100.00;59669.53;5054167;28;20024;-60
2021/05/14 06:32:35;;;;;;;0.80;0.60;;;;;;;-142.37;100.00;59669.53;5054079;28;20495;-60
2021/05/14 06:35:01;;;;;;;0.80;0.57;;;;;;;-142.37;100.00;59669.53;5055031;28;20108;-59
2021/05/14 06:37:26;;;;;;;0.45;0.40;;;;;;;-142.37;100.00;59669.53;5054329;28;20048;-59
2021/05/14 06:39:51;;;;;;;0.70;0.50;;;;;;;-142.37;100.00;59669.53;5059811;28;20105;-59
2021/05/14 06:42:16;;;;;;;0.80;0.50;;;;;;;-142.37;100.00;59669.53;5060158;28;20036;-60
2021/05/14 06:44:42;;;;;;;1.63;0.40;;;;;;;-142.37;100.00;59669.53;5055134;28;20029;-60
2021/05/14 06:47:07;;;;;;;1.52;0.50;;;;;;;-142.37;100.00;59669.53;5055708;28;20041;-59
2021/05/14 06:49:33;;;;;;;1.67;0.50;;;;;;;-142.37;100.00;59669.53;5054627;28;20151;-60
2021/05/14 06:51:59;;;;;;;0.80;0.38;;;;;;;-142.37;100.00;59669.53;5055798;28;20512;-59
2021/05/14 06:54:24;;;;;;;1.27;0.40;;;;;;;-142.37;100.00;59669.53;5058569;28;20452;-60
2021/05/14 06:56:50;;;;;;;0.38;0.35;;;;;;;-142.37;100.00;59669.53;5053632;28;20494;-60
2021/05/14 06:59:16;;;;;;;1.42;0.30;;;;;;;-142.37;100.00;59669.53;5052901;28;20021;-59
2021/05/14 07:01:42;;;;;;;0.90;0.40;;;;;;;-142.37;100.00;59669.53;5051927;28;20025;-59
2021/05/14 07:04:08;;;;;;;0.75;0.50;;;;;;;-142.37;100.00;59669.53;5053351;28;20035;-59
2021/05/14 07:06:33;;;;;;;0.70;0.57;;;;;;;-142.37;100.00;59669.53;5052952;28;20025;-59
2021/05/14 07:08:58;;;;;;;0.63;0.45;;;;;;;-142.37;100.00;59669.53;5052966;28;20250;-59
2021/05/14 07:11:24;;;;;;;0.82;0.32;;;;;;;-142.37;100.00;59669.53;5053560;28;20028;-60
2021/05/14 07:13:49;;;;;;;0.75;0.50;;;;;;;-142.37;100.00;59669.53;5052191;28;20375;-60
2021/05/14 07:16:14;;;;;;;1.10;0.30;;;;;;;-142.37;100.00;59669.53;5052342;28;20419;-60
2021/05/14 07:18:40;;;;;;;1.65;0.30;;;;;;;-142.37;100.00;59669.53;5052492;28;20029;-60
2021/05/14 07:21:05;;;;;;;2.50;0.52;;;;;;;-142.37;100.00;59669.53;5051682;28;20157;-59
2021/05/14 07:23:31;;;;;;;1.50;0.40;;;;;;;-142.37;100.00;59669.53;5052962;28;20035;-59
2021/05/14 07:25:57;;;;;;;0.70;0.28;;;;;;;-142.37;100.00;59669.53;5052791;28;20025;-59
2021/05/14 07:28:22;;;;;;;0.95;0.43;;;;;;;-142.37;100.00;59669.53;5053370;28;20036;-59
2021/05/14 07:30:47;;;;;;;0.70;0.30;;;;;;;-142.37;100.00;59669.53;5052097;28;20058;-59
2021/05/14 07:33:13;;;;;;;2.28;0.73;;;;;;;-142.37;100.00;59669.53;5053262;28;20468;-59
2021/05/14 07:35:38;;;;;;;0.80;0.50;;;;;;;-142.37;100.00;59669.53;5055086;28;20029;-59
2021/05/14 07:38:04;;;;;;;0.65;0.30;;;;;;;-142.37;100.00;59669.53;5052488;28;20062;-60
2021/05/14 07:40:30;;;;;;;0.73;0.25;;;;;;;-142.37;100.00;59669.53;5049473;28;20079;-59
2021/05/14 07:42:55;;;;;;;0.43;0.40;;;;;;;-142.37;100.00;59669.53;5053208;28;20090;-59
2021/05/14 07:45:20;;;;;;;1.83;0.30;;;;;;;-142.37;100.00;59669.53;5052722;28;20666;-60
2021/05/14 07:47:46;;;;;;;0.30;0.30;;;;;;;-142.37;100.00;59669.53;5054235;28;20108;-60
2021/05/14 07:50:11;;;;;;;0.50;0.43;;;;;;;-142.37;100.00;59669.53;5055737;28;20088;-59
2021/05/14 07:52:39;;;;;;;0.30;0.30;;;;;;;-142.37;100.00;59669.53;5049855;28;20419;-59
2021/05/14 07:55:05;;;;;;;0.63;0.57;;;;;;;-142.37;100.00;59669.53;5049898;28;20024;-59
2021/05/14 07:57:30;;;;;;;3.13;0.50;;;;;;;-142.37;100.00;59669.53;5054776;28;20033;-59
2021/05/14 07:59:55;;;;;;;0.70;0.60;;;;;;;-142.37;100.00;59669.53;5054564;28;20108;-59
2021/05/14 08:02:20;;;;;;;0.68;0.40;;;;;;;-142.37;100.00;59669.53;5056643;28;20029;-60
2021/05/14 08:04:46;;;;;;;0.25;0.25;;;;;;;-142.37;100.00;59669.53;5062258;28;20029;-60
2021/05/14 08:07:11;;;;;;;0.93;0.43;;;;;;;-142.37;100.00;59669.53;5037895;28;20026;-59
2021/05/14 08:09:37;;;;;;;0.70;0.30;;;;;;;-142.37;100.00;59669.53;5068558;28;20431;-59
2021/05/14 08:12:05;;;;;;;0.30;0.30;;;;;;;-142.37;100.00;59669.53;5053899;28;20033;-60
2021/05/14 08:14:30;;;;;;;0.98;0.50;;;;;;;-142.37;100.00;59669.53;5052950;28;20036;-60
2021/05/14 08:16:56;;;;;;;0.82;0.40;;;;;;;-142.37;100.00;59669.53;5054182;28;20033;-59
2021/05/14 08:19:22;;;;;;;0.82;0.40;;;;;;;-142.37;100.00;59669.53;5052626;28;20464;-59
2021/05/14 08:21:47;;;;;;;0.73;0.40;;;;;;;-142.37;100.00;59669.53;5052875;28;20099;-59
2021/05/14 08:24:13;;;;;;;1.13;0.90;;;;;;;-142.37;100.00;59669.53;5055362;28;20029;-59
2021/05/14 08:26:40;;;;;;;0.70;0.68;;;;;;;-142.37;100.00;59669.53;5055217;28;20025;-59
2021/05/14 08:29:06;;;;;;;1.00;0.55;;;;;;;-142.37;100.00;59669.53;5051367;28;20032;-59
2021/05/14 08:31:38;;;;;;;0.52;0.40;;;;;;;-142.37;100.00;59669.53;5052325;28;20081;-59
2021/05/14 08:34:04;;;;;;;0.77;0.70;;;;;;;-142.37;100.00;59669.53;5056977;28;20047;-59
2021/05/14 08:36:29;;;;;;;1.42;0.82;;;;;;;-142.37;100.00;59669.53;5062214;28;20476;-59
2021/05/14 08:38:55;;;;;;;0.57;0.50;;;;;;;-142.37;100.00;59669.53;5046581;28;20035;-60
2021/05/14 08:41:20;;;;;;;1.20;0.73;;;;;;;-142.37;100.00;59669.53;5049742;28;20170;-60
2021/05/14 08:43:47;;;;;;;1.50;0.80;;;;;;;-142.37;100.00;59669.53;5055053;28;20460;-60
2021/05/14 08:46:13;;;;;;;1.05;0.47;;;;;;;-142.37;100.00;59669.53;5060292;28;20050;-59
2021/05/14 08:48:40;;;;;;;0.80;0.80;;;;;;;-142.37;100.00;59669.53;5053889;28;20436;-59
2021/05/14 08:51:07;;;;;;;2.03;0.82;;;;;;;-142.37;100.00;59669.53;5043486;28;20381;-59
2021/05/14 08:53:32;;;;;;;0.80;0.52;;;;;;;-142.37;100.00;59669.53;5051426;28;20020;-59
2021/05/14 08:55:59;;;;;;;1.55;0.60;;;;;;;-142.37;100.00;59669.53;5050585;28;20017;-59
2021/05/14 08:58:25;;;;;;;1.38;0.65;;;;;;;-142.37;100.00;59669.53;5050519;28;20490;-59
2021/05/14 09:00:50;;;;;;;0.70;0.47;;;;;;;-142.37;100.00;59669.53;5052178;28;20041;-59
2021/05/14 09:03:15;;;;;;;0.55;0.50;;;;;;;-142.37;100.00;59669.53;5051719;28;20029;-60
2021/05/14 09:05:43;;;;;;;0.60;0.50;;;;;;;-142.37;100.00;59669.53;5055031;28;20023;-59
2021/05/14 09:08:08;;;;;;;0.80;0.50;;;;;;;-142.37;100.00;59669.53;5054380;28;20384;-59
2021/05/14 09:10:34;;;;;;;0.95;0.70;;;;;;;-142.37;100.00;59669.53;5050498;28;20024;-60
2021/05/14 09:12:59;;;;;;;5.13;0.68;;;;;;;-142.37;100.00;59669.53;5052391;28;20060;-59
2021/05/14 09:15:35;;;;;;;1.05;0.70;;;;;;;-142.37;100.00;59669.53;5051137;28;20434;-59
2021/05/14 09:18:19;;;;;;;1.23;0.50;;;;;;;-142.37;100.00;59669.53;5050514;28;20024;-59
2021/05/14 09:20:54;;;;;;;;;;;;;;;-142.37;100.00;59669.53;5057435;28;20388;-59
2021/05/14 09:23:19;;;;;;;;;;;;;;;-142.37;100.00;59669.53;5053156;28;19917;-59
2021/05/14 09:25:53;;;;;;;1.63;0.70;;;;;;;-142.37;100.00;59669.53;5052002;28;20352;-60
2021/05/14 09:28:28;;;;;;;0.98;0.30;;;;;;;-142.37;100.00;59669.53;5052857;28;20415;-64
2021/05/14 09:31:02;;;;;;;0.70;0.30;;;;;;;-142.37;100.00;59669.53;5052123;28;20021;-63
2021/05/14 09:33:28;;;;;;;0.40;0.40;;;;;;;-142.37;100.00;59669.53;5058413;28;20100;-65
2021/05/14 09:35:58;;;;;;;0.52;0.47;;;;;;;-142.37;100.00;59669.53;5053095;28;20132;-65
2021/05/14 09:38:23;;;;;;;0.88;0.40;;;;;;;-142.37;100.00;59669.53;5056735;28;20058;-65
2021/05/14 09:40:48;;;;;;;0.43;0.40;;;;;;;-142.37;100.00;59669.53;5050930;28;20048;-65
2021/05/14 09:43:14;;;;;;;1.08;0.43;;;;;;;-142.37;100.00;59669.53;5052003;28;20032;-65
2021/05/14 09:45:39;;;;;;;0.43;0.25;;;;;;;-142.37;100.00;59669.53;5055935;28;20554;-67
2021/05/14 09:50:50;;;;;;;0.50;0.47;;;;;;;-142.37;100.00;59669.53;5071359;28;20091;-63
2021/05/14 09:53:20;;;;;;;1.05;0.47;;;;;;;-142.37;100.00;59669.53;5056049;28;20032;-63
2021/05/14 09:55:55;;;;;;;1.05;0.40;;;;;;;-142.37;100.00;59669.53;5054364;28;20028;-64
2021/05/14 09:58:25;;;;;;;0.50;0.25;;;;;;;-142.37;100.00;59669.53;5054491;28;20040;-64
2021/05/14 10:00:51;;;;;;;0.73;0.32;;;;;;;-142.37;100.00;59669.53;5054979;28;20060;-65
2021/05/14 10:03:18;;;;;;;0.63;0.30;;;;;;;-142.37;100.00;59669.53;5048091;28;20029;-63
2021/05/14 10:05:50;;;;;;;1.00;0.40;;;;;;;-142.37;100.00;59669.53;5053820;28;20017;-64
2021/05/14 10:08:20;;;;;;;0.90;0.32;;;;;;;-142.37;100.00;59669.53;5054281;28;20029;-64
2021/05/14 10:10:47;;;;;;;0.40;0.40;;;;;;;-142.37;100.00;59669.53;5054799;28;20025;-63
2021/05/14 10:13:12;;;;;;;0.80;0.30;;;;;;;-142.37;100.00;59669.53;5060323;28;20476;-63
2021/05/14 10:15:38;;;;;;;1.77;0.43;;;;;;;-142.37;100.00;59669.53;5074846;28;20070;-64
2021/05/14 10:18:06;;;;;;;2.78;0.52;;;;;;;-142.37;100.00;59669.53;5074703;28;20527;-64
2021/05/14 10:20:34;;;;;;;2.90;0.63;;;;;;;-142.37;100.00;59669.53;5080005;22;20052;-63
2021/05/14 10:23:01;;;;;;;0.38;0.38;;;;;;;-142.37;100.00;59669.53;5074085;28;20383;-63
2021/05/14 10:25:38;;;;;;;1.40;0.60;;;;;;;-142.37;100.00;59669.53;5075126;28;20019;-63
2021/05/14 10:28:09;;;;;;;0.70;0.50;;;;;;;-142.37;100.00;59669.53;5075288;28;20158;-63
2021/05/14 10:30:34;;;;;;;0.52;0.30;;;;;;;-142.37;100.00;59669.53;5073198;28;20020;-62
2021/05/14 10:33:00;;;;;;;1.02;0.68;;;;;;;-142.37;100.00;59669.53;5074751;28;20055;-64
2021/05/14 10:35:30;;;;;;;0.77;0.55;;;;;;;-142.37;100.00;59669.53;5074933;28;20025;-63
2021/05/14 10:38:08;;;;;;;0.77;0.30;;;;;;;-142.37;100.00;59669.53;5075069;28;20055;-64
2021/05/14 10:40:34;;;;;;;0.80;0.47;;;;;;;-142.37;100.00;59669.53;5074900;28;20084;-63
2021/05/14 10:43:03;;;;;;;0.50;0.40;;;;;;;-142.37;100.00;59669.53;5075190;28;20393;-63
2021/05/14 10:45:58;;;;;;;1.15;0.50;;;;;;;-142.37;100.00;59669.53;5074861;28;20165;-65
2021/05/14 10:48:24;;;;;;;0.52;0.40;;;;;;;-142.37;100.00;59669.53;5066313;28;20051;-63
2021/05/14 10:50:57;;;;;;;1.20;0.68;;;;;;;-142.37;100.00;59669.53;5073621;28;20033;-63
2021/05/14 10:53:28;;;;;;;1.43;0.50;;;;;;;-142.37;100.00;59669.53;5074238;28;20384;-63
2021/05/14 10:55:55;;;;;;;0.88;0.60;;;;;;;-142.37;100.00;59669.53;5074151;28;20036;-64
2021/05/14 10:58:46;;;;;;;0.60;0.20;;;;;;;-142.37;100.00;59669.53;5074571;28;20020;-64
2021/05/14 11:01:36;;;;;;;1.60;0.40;;;;;;;-142.37;100.00;59669.53;5074606;28;20103;-63
2021/05/14 11:04:04;;;;;;;0.95;0.38;;;;;;;-142.37;100.00;59669.53;5074084;28;20066;-64
2021/05/14 11:06:39;;;;;;;0.43;0.28;;;;;;;-142.37;100.00;59669.53;5074090;28;20410;-64
2021/05/14 11:09:10;;;;;;;0.20;0.17;;;;;;;-142.37;100.00;59669.53;5070341;28;20033;-64
2021/05/14 11:11:55;;;;;;;0.30;0.30;;;;;;;-142.37;100.00;59669.53;5069342;28;20028;-64
2021/05/14 11:14:20;;;;;;;1.92;0.40;;;;;;;-142.37;100.00;59669.53;5055223;28;20459;-64